Terminal Aerodrome Forecast
Issued by NWS

Home | Current Version | Previous Version | Text Only | Print | Product List | Glossary On
Versions: 1 2 3 4 5 6 7 8 9 10 11 12 13 14 15 16 17 18 19
206
FTUS43 KJKL 221720
TAFSME
TAF
KSME 221720Z 2218/2318 10005KT P6SM VCSH BKN035
     FM222100 13004KT 5SM SHRA OVC025
     FM230200 24007KT 4SM SHRA OVC015
     FM230400 28007KT 4SM SHRA VCTS OVC008CB
     FM231200 33011KT 2SM -SHRA OVC003=

USA.gov is the U.S. government's official web portal to all federal, state and local government web resources and services.